createdAt,value
2022-09-30T00:00:57.516Z,11.30
2022-09-30T00:03:24.737Z,11.40
2022-09-30T00:06:07.611Z,11.30
2022-09-30T00:08:36.550Z,11.30
2022-09-30T00:11:05.351Z,11.30
2022-09-30T00:13:33.909Z,11.30
2022-09-30T00:16:01.651Z,11.20
2022-09-30T00:18:28.802Z,11.20
2022-09-30T00:20:55.974Z,11.20
2022-09-30T00:23:23.617Z,11.20
2022-09-30T00:25:51.479Z,11.10
2022-09-30T00:28:18.541Z,11.10
2022-09-30T00:30:46.368Z,11.10
2022-09-30T00:33:13.392Z,11.10
2022-09-30T00:35:40.489Z,11.70
2022-09-30T00:38:07.524Z,11.00
2022-09-30T00:40:34.618Z,11.00
2022-09-30T00:43:01.668Z,11.20
2022-09-30T00:45:28.832Z,10.50
2022-09-30T00:48:00.609Z,10.90
2022-09-30T00:50:47.201Z,10.40
2022-09-30T00:53:16.493Z,10.90
2022-09-30T00:55:43.528Z,10.90
2022-09-30T00:58:11.853Z,10.90
2022-09-30T01:00:39.113Z,10.80
2022-09-30T01:03:06.875Z,10.60
2022-09-30T01:05:44.176Z,10.90
2022-09-30T01:08:12.436Z,10.90
2022-09-30T01:10:40.198Z,10.90
2022-09-30T01:13:07.361Z,11.10
2022-09-30T01:15:47.432Z,11.00
2022-09-30T01:18:21.804Z,11.00
2022-09-30T01:21:04.157Z,11.00
2022-09-30T01:23:52.313Z,11.10
2022-09-30T01:26:31.637Z,11.00
2022-09-30T01:29:28.103Z,11.10
2022-09-30T01:31:56.259Z,11.10
2022-09-30T01:34:24.407Z,11.00
2022-09-30T01:36:51.472Z,11.00
2022-09-30T01:39:21.666Z,11.00
2022-09-30T01:41:48.840Z,10.90
2022-09-30T01:44:15.912Z,11.00
2022-09-30T01:47:15.649Z,10.90
2022-09-30T01:49:50.751Z,10.90
2022-09-30T01:52:38.125Z,10.90
2022-09-30T01:55:08.517Z,10.90
2022-09-30T01:57:54.392Z,10.90
2022-09-30T02:00:21.464Z,10.90
2022-09-30T02:02:57.960Z,11.40
2022-09-30T02:05:29.501Z,10.90
2022-09-30T02:08:00.148Z,10.90
2022-09-30T02:10:33.083Z,10.90
2022-09-30T02:13:13.120Z,10.90
2022-09-30T02:15:43.199Z,10.80
2022-09-30T02:18:13.005Z,10.80
2022-09-30T02:20:42.345Z,10.80
2022-09-30T02:23:09.440Z,10.80
2022-09-30T02:25:39.902Z,10.70
2022-09-30T02:28:08.585Z,10.70
2022-09-30T02:30:37.578Z,10.70
2022-09-30T02:33:11.439Z,10.60
2022-09-30T02:35:43.576Z,10.60
2022-09-30T02:38:13.470Z,10.60
2022-09-30T02:40:47.548Z,10.70
2022-09-30T02:43:15.291Z,10.70
2022-09-30T02:45:57.782Z,10.80
2022-09-30T02:48:33.873Z,10.80
2022-09-30T02:51:04.037Z,10.60
2022-09-30T02:53:36.209Z,10.80
2022-09-30T02:56:15.235Z,10.90
2022-09-30T02:58:43.378Z,10.90
2022-09-30T03:01:16.190Z,10.80
2022-09-30T03:03:45.878Z,10.80
2022-09-30T03:06:13.191Z,10.80
2022-09-30T03:08:40.489Z,10.90
2022-09-30T03:11:07.958Z,10.90
2022-09-30T03:13:53.407Z,10.90
2022-09-30T03:16:37.164Z,11.00
2022-09-30T03:19:23.177Z,10.90
2022-09-30T03:22:10.817Z,11.00
2022-09-30T03:24:52.220Z,11.10
2022-09-30T03:27:32.494Z,11.10
2022-09-30T03:30:05.400Z,11.00
2022-09-30T03:32:49.283Z,11.00
2022-09-30T03:35:26.103Z,11.00
2022-09-30T03:38:06.093Z,11.00
2022-09-30T03:40:43.746Z,11.00
2022-09-30T03:43:32.889Z,11.00
2022-09-30T03:46:18.802Z,11.00
2022-09-30T03:48:47.262Z,11.00
2022-09-30T03:51:15.100Z,11.10
2022-09-30T03:53:43.076Z,11.00
2022-09-30T03:56:10.159Z,10.70
2022-09-30T03:58:40.514Z,11.00
2022-09-30T04:01:07.562Z,11.00
2022-09-30T04:03:35.541Z,11.00
2022-09-30T04:06:03.250Z,11.00
2022-09-30T04:08:33.761Z,11.00
2022-09-30T04:11:01.043Z,11.30
2022-09-30T04:13:28.080Z,10.90
2022-09-30T04:15:55.271Z,11.00
2022-09-30T04:18:22.507Z,11.00
2022-09-30T04:20:49.588Z,10.90
2022-09-30T04:23:17.002Z,11.00
2022-09-30T04:25:44.071Z,11.10
2022-09-30T04:28:11.161Z,11.10
2022-09-30T04:30:38.378Z,11.10
2022-09-30T04:33:05.480Z,11.10
2022-09-30T04:35:32.753Z,11.20
2022-09-30T04:37:59.857Z,11.20
2022-09-30T04:40:26.906Z,11.20
2022-09-30T04:42:57.138Z,11.20
2022-09-30T04:45:25.219Z,11.20
2022-09-30T04:47:52.388Z,11.20
2022-09-30T04:50:19.551Z,11.20
2022-09-30T04:52:46.671Z,11.20
2022-09-30T04:55:13.850Z,11.20
2022-09-30T04:57:43.591Z,11.20
2022-09-30T05:00:11.191Z,11.20
2022-09-30T05:02:38.277Z,11.10
2022-09-30T05:05:06.221Z,11.20
2022-09-30T05:07:33.293Z,11.10
2022-09-30T05:10:00.830Z,11.10
2022-09-30T05:12:27.897Z,11.10
2022-09-30T05:14:55.048Z,11.20
2022-09-30T05:17:22.208Z,11.10
2022-09-30T05:19:49.240Z,10.70
2022-09-30T05:22:16.390Z,11.10
2022-09-30T05:24:43.475Z,11.00
2022-09-30T05:27:10.536Z,11.10
2022-09-30T05:29:37.611Z,11.00
2022-09-30T05:32:04.672Z,11.10
2022-09-30T05:34:31.738Z,11.00
2022-09-30T05:36:58.885Z,11.00
2022-09-30T05:39:27.619Z,11.10
2022-09-30T05:41:56.120Z,11.10
2022-09-30T05:44:23.236Z,11.10
2022-09-30T05:46:50.383Z,11.10
2022-09-30T05:49:17.502Z,11.10
2022-09-30T05:51:44.570Z,11.10
2022-09-30T05:54:11.979Z,11.10
2022-09-30T05:56:39.250Z,11.10
2022-09-30T05:59:06.520Z,11.10
2022-09-30T06:01:33.647Z,11.40
2022-09-30T06:04:00.902Z,11.20
2022-09-30T06:06:28.111Z,11.30
2022-09-30T06:08:55.181Z,11.10
2022-09-30T06:11:25.113Z,11.10
2022-09-30T06:13:52.566Z,11.20
2022-09-30T06:16:19.782Z,11.20
2022-09-30T06:18:46.934Z,11.20
2022-09-30T06:21:15.787Z,11.20
2022-09-30T06:23:43.314Z,11.20
2022-09-30T06:26:11.968Z,11.20
2022-09-30T06:28:39.437Z,11.40
2022-09-30T06:31:07.199Z,11.30
2022-09-30T06:33:34.436Z,11.30
2022-09-30T06:36:04.513Z,11.30
2022-09-30T06:38:32.460Z,11.30
2022-09-30T06:41:00.450Z,11.30
2022-09-30T06:43:27.853Z,11.30
2022-09-30T06:46:06.558Z,11.40
2022-09-30T06:48:38.753Z,11.30
2022-09-30T06:51:09.941Z,12.70
2022-09-30T06:53:37.861Z,11.30
2022-09-30T06:56:06.844Z,11.10
2022-09-30T06:58:33.965Z,11.30
2022-09-30T07:01:03.850Z,11.30
2022-09-30T07:03:32.343Z,11.30
2022-09-30T07:06:00.613Z,11.30
2022-09-30T07:08:31.982Z,11.30
2022-09-30T07:11:01.715Z,11.30
2022-09-30T07:13:28.829Z,11.40
2022-09-30T07:15:56.642Z,11.40
2022-09-30T07:18:24.564Z,11.40
2022-09-30T07:20:52.305Z,11.40
2022-09-30T07:23:24.422Z,11.50
2022-09-30T07:25:57.205Z,11.50
2022-09-30T07:28:28.460Z,11.40
2022-09-30T07:31:20.089Z,11.40
2022-09-30T07:33:46.177Z,11.40
2022-09-30T07:36:18.804Z,11.50
2022-09-30T07:38:46.636Z,11.50
2022-09-30T07:41:16.187Z,11.50
2022-09-30T07:43:44.170Z,11.50
2022-09-30T07:46:15.585Z,11.70
2022-09-30T07:48:44.445Z,11.50
2022-09-30T07:51:13.370Z,11.70
2022-09-30T07:53:41.430Z,11.70
2022-09-30T07:56:08.866Z,11.60
2022-09-30T07:58:36.518Z,11.70
2022-09-30T08:01:06.918Z,11.60
2022-09-30T08:03:35.198Z,11.60
2022-09-30T08:06:09.784Z,11.60
2022-09-30T08:08:37.193Z,12.60
2022-09-30T08:11:05.000Z,11.50
2022-09-30T08:13:32.174Z,11.60
2022-09-30T08:15:59.238Z,11.50
2022-09-30T08:18:27.656Z,11.60
2022-09-30T08:20:54.938Z,11.60
2022-09-30T08:23:22.019Z,11.70
2022-09-30T08:25:49.097Z,11.70
2022-09-30T08:28:17.636Z,11.80
2022-09-30T08:30:44.728Z,11.80
2022-09-30T08:33:11.772Z,11.90
2022-09-30T08:35:38.850Z,11.90
2022-09-30T08:38:06.140Z,12.00
2022-09-30T08:40:36.875Z,12.00
2022-09-30T08:43:24.453Z,11.00
2022-09-30T08:46:17.894Z,12.40
2022-09-30T08:48:44.996Z,12.90
2022-09-30T08:51:27.631Z,12.40
2022-09-30T08:53:55.220Z,12.60
2022-09-30T08:56:27.958Z,12.70
2022-09-30T08:59:01.202Z,12.80
2022-09-30T09:01:28.404Z,13.10
2022-09-30T09:03:57.013Z,13.10
2022-09-30T09:06:27.267Z,13.20
2022-09-30T09:09:03.294Z,13.30
2022-09-30T09:12:08.945Z,13.70
2022-09-30T09:14:54.585Z,13.30
2022-09-30T09:17:24.649Z,13.50
2022-09-30T09:19:54.485Z,13.60
2022-09-30T09:22:24.821Z,13.60
2022-09-30T09:24:53.635Z,13.70
2022-09-30T09:27:25.677Z,13.80
2022-09-30T09:30:06.674Z,13.80
2022-09-30T09:32:34.628Z,13.80
2022-09-30T09:35:06.773Z,13.90
2022-09-30T09:38:16.584Z,13.90
2022-09-30T09:40:43.643Z,14.10
2022-09-30T09:43:27.664Z,14.10
2022-09-30T09:46:31.884Z,14.20
2022-09-30T09:49:14.096Z,14.20
2022-09-30T09:51:43.664Z,14.30
2022-09-30T09:54:12.234Z,14.40
2022-09-30T09:56:39.374Z,14.40
2022-09-30T09:59:20.140Z,14.40
2022-09-30T10:01:51.976Z,14.40
2022-09-30T10:04:26.307Z,14.40
2022-09-30T10:06:56.310Z,14.50
2022-09-30T10:09:23.562Z,14.50
2022-09-30T10:11:50.698Z,14.50
2022-09-30T10:14:21.890Z,14.60
2022-09-30T10:16:49.124Z,14.60
2022-09-30T10:19:26.352Z,14.70
2022-09-30T10:22:08.759Z,14.70
2022-09-30T10:24:37.893Z,14.80
2022-09-30T10:27:19.634Z,14.80
2022-09-30T10:29:47.587Z,14.80
2022-09-30T10:32:14.735Z,14.90
2022-09-30T10:34:43.801Z,14.90
2022-09-30T10:37:19.018Z,14.90
2022-09-30T10:39:51.887Z,15.00
2022-09-30T10:42:27.289Z,15.00
2022-09-30T10:44:58.306Z,15.00
2022-09-30T10:47:26.691Z,15.00
2022-09-30T10:49:56.947Z,15.10
2022-09-30T10:52:25.871Z,15.00
2022-09-30T10:54:56.980Z,15.10
2022-09-30T10:57:26.092Z,14.80
2022-09-30T10:59:57.530Z,15.10
2022-09-30T11:02:27.419Z,15.20
2022-09-30T11:05:07.873Z,15.20
2022-09-30T11:07:53.753Z,15.30
2022-09-30T11:10:20.803Z,15.00
2022-09-30T11:12:51.930Z,15.40
2022-09-30T11:15:24.129Z,15.50
2022-09-30T11:17:56.233Z,15.60
2022-09-30T11:20:26.599Z,15.60
2022-09-30T11:22:57.425Z,15.60
2022-09-30T11:25:37.667Z,15.70
2022-09-30T11:28:13.625Z,15.70
2022-09-30T11:30:55.756Z,15.60
2022-09-30T11:33:47.302Z,15.70
2022-09-30T11:36:31.688Z,15.80
2022-09-30T11:39:04.594Z,15.70
2022-09-30T11:41:35.116Z,16.50
2022-09-30T11:44:14.755Z,15.90
2022-09-30T11:46:48.187Z,16.00
2022-09-30T11:49:15.225Z,16.10
2022-09-30T11:51:49.118Z,16.00
2022-09-30T11:54:19.067Z,16.00
2022-09-30T11:56:53.965Z,16.10
2022-09-30T11:59:21.786Z,16.10
2022-09-30T12:01:56.569Z,16.10
2022-09-30T12:04:38.771Z,16.10
2022-09-30T12:07:18.914Z,16.10
2022-09-30T12:09:56.099Z,16.10
2022-09-30T12:12:37.901Z,16.10
2022-09-30T12:15:11.071Z,16.10
2022-09-30T12:17:40.676Z,16.10
2022-09-30T12:20:07.829Z,16.10
2022-09-30T12:22:40.248Z,16.10
2022-09-30T12:25:27.588Z,16.10
2022-09-30T12:28:23.175Z,16.10
2022-09-30T12:30:53.878Z,16.10
2022-09-30T12:33:30.061Z,16.10
2022-09-30T12:35:57.151Z,16.10
2022-09-30T12:38:33.034Z,15.60
2022-09-30T12:41:25.134Z,16.10
2022-09-30T12:43:55.217Z,15.80
2022-09-30T12:46:22.534Z,16.20
2022-09-30T12:49:10.456Z,16.20
2022-09-30T12:51:42.333Z,16.20
2022-09-30T12:54:15.369Z,16.20
2022-09-30T12:56:43.811Z,15.90
2022-09-30T12:59:12.997Z,16.20
2022-09-30T13:01:42.096Z,16.30
2022-09-30T13:04:14.965Z,16.40
2022-09-30T13:06:45.132Z,16.70
2022-09-30T13:09:19.749Z,16.40
2022-09-30T13:11:55.783Z,16.30
2022-09-30T13:14:32.924Z,16.30
2022-09-30T13:17:01.407Z,16.20
2022-09-30T13:19:41.096Z,14.80
2022-09-30T13:22:20.309Z,16.20
2022-09-30T13:25:05.796Z,16.20
2022-09-30T13:27:33.838Z,16.10
2022-09-30T13:30:01.826Z,15.50
2022-09-30T13:32:33.103Z,15.80
2022-09-30T13:35:00.231Z,15.90
2022-09-30T13:37:35.307Z,15.90
2022-09-30T13:40:05.145Z,15.90
2022-09-30T13:42:37.423Z,15.90
2022-09-30T13:45:07.920Z,15.80
2022-09-30T13:47:40.563Z,15.80
2022-09-30T13:50:31.746Z,15.80
2022-09-30T13:53:01.079Z,15.80
2022-09-30T13:55:36.782Z,15.80
2022-09-30T13:58:23.298Z,15.70
2022-09-30T14:00:58.761Z,15.80
2022-09-30T14:03:37.068Z,16.10
2022-09-30T14:06:04.174Z,15.70
2022-09-30T14:08:36.733Z,15.70
2022-09-30T14:11:13.804Z,15.60
2022-09-30T14:13:51.300Z,15.60
2022-09-30T14:16:31.965Z,15.70
2022-09-30T14:19:05.125Z,15.60
2022-09-30T14:21:35.438Z,15.60
2022-09-30T14:24:09.160Z,15.60
2022-09-30T14:26:53.518Z,15.40
2022-09-30T14:29:20.568Z,15.60
2022-09-30T14:31:48.983Z,15.50
2022-09-30T14:34:18.849Z,15.50
2022-09-30T14:36:46.633Z,15.50
2022-09-30T14:39:20.378Z,15.50
2022-09-30T14:41:50.039Z,15.50
2022-09-30T14:44:17.926Z,15.50
2022-09-30T14:46:48.705Z,16.00
2022-09-30T14:49:18.312Z,15.40
2022-09-30T14:51:48.274Z,15.40
2022-09-30T14:54:26.641Z,15.40
2022-09-30T14:56:56.545Z,15.40
2022-09-30T14:59:27.097Z,15.40
2022-09-30T15:01:58.217Z,15.30
2022-09-30T15:04:27.644Z,15.40
2022-09-30T15:06:55.417Z,15.30
2022-09-30T15:09:22.455Z,15.30
2022-09-30T15:11:49.593Z,15.30
2022-09-30T15:14:20.772Z,15.30
2022-09-30T15:16:48.729Z,15.30
2022-09-30T15:19:21.146Z,15.30
2022-09-30T15:21:50.180Z,15.20
2022-09-30T15:24:21.394Z,15.20
2022-09-30T15:26:49.285Z,15.10
2022-09-30T15:29:17.057Z,15.10
2022-09-30T15:31:45.778Z,15.00
2022-09-30T15:34:12.856Z,14.90
2022-09-30T15:36:39.983Z,14.90
2022-09-30T15:39:17.193Z,14.80
2022-09-30T15:41:46.500Z,14.70
2022-09-30T15:44:16.697Z,14.60
2022-09-30T15:47:00.141Z,14.40
2022-09-30T15:49:31.410Z,14.40
2022-09-30T15:52:18.430Z,14.40
2022-09-30T15:54:45.529Z,14.40
2022-09-30T15:57:32.523Z,14.20
2022-09-30T16:00:01.041Z,13.70
2022-09-30T16:02:29.026Z,14.60
2022-09-30T16:04:56.625Z,14.00
2022-09-30T16:07:28.263Z,14.00
2022-09-30T16:09:56.736Z,13.90
2022-09-30T16:12:25.708Z,13.80
2022-09-30T16:14:54.210Z,13.80
2022-09-30T16:17:21.751Z,13.80
2022-09-30T16:20:04.508Z,13.70
2022-09-30T16:22:41.021Z,13.60
2022-09-30T16:25:16.082Z,13.60
2022-09-30T16:27:43.925Z,13.50
2022-09-30T16:30:18.371Z,13.50
2022-09-30T16:32:48.156Z,13.50
2022-09-30T16:35:19.974Z,13.50
2022-09-30T16:37:48.638Z,13.30
2022-09-30T16:40:20.360Z,13.40
2022-09-30T16:42:47.663Z,13.50
2022-09-30T16:45:15.408Z,13.40
2022-09-30T16:47:43.332Z,13.30
2022-09-30T16:50:22.519Z,13.40
2022-09-30T16:52:49.662Z,13.40
2022-09-30T16:55:17.069Z,13.40
2022-09-30T16:57:44.329Z,13.30
2022-09-30T17:00:13.144Z,13.30
2022-09-30T17:02:40.949Z,13.30
2022-09-30T17:05:14.877Z,13.30
2022-09-30T17:07:43.036Z,13.30
2022-09-30T17:10:16.482Z,13.20
2022-09-30T17:12:43.566Z,13.20
2022-09-30T17:15:11.776Z,13.30
2022-09-30T17:17:38.895Z,13.30
2022-09-30T17:20:09.077Z,13.20
2022-09-30T17:22:36.299Z,13.20
2022-09-30T17:25:03.551Z,13.10
2022-09-30T17:27:30.633Z,13.10
2022-09-30T17:29:57.889Z,13.10
2022-09-30T17:32:25.000Z,13.10
2022-09-30T17:34:52.693Z,13.10
2022-09-30T17:37:20.201Z,13.10
2022-09-30T17:39:47.278Z,13.10
2022-09-30T17:42:33.453Z,12.90
2022-09-30T17:45:02.062Z,13.00
2022-09-30T17:47:29.599Z,13.00
2022-09-30T17:49:56.766Z,13.10
2022-09-30T17:52:25.168Z,13.10
2022-09-30T17:54:52.752Z,13.10
2022-09-30T17:57:20.438Z,13.10
2022-09-30T17:59:47.598Z,13.10
2022-09-30T18:02:19.445Z,13.10
2022-09-30T18:04:46.612Z,13.00
2022-09-30T18:07:14.057Z,13.10
2022-09-30T18:09:41.186Z,13.10
2022-09-30T18:12:08.217Z,13.00
2022-09-30T18:14:36.070Z,13.10
2022-09-30T18:17:04.361Z,13.10
2022-09-30T18:19:31.801Z,13.10
2022-09-30T18:21:58.993Z,13.10
2022-09-30T18:24:44.880Z,13.10
2022-09-30T18:27:12.259Z,13.10
2022-09-30T18:29:40.385Z,13.10
2022-09-30T18:32:07.886Z,13.10
2022-09-30T18:34:35.351Z,13.10
2022-09-30T18:37:04.191Z,13.20
2022-09-30T18:39:33.690Z,13.20
2022-09-30T18:42:01.047Z,13.30
2022-09-30T18:44:28.371Z,13.20
2022-09-30T18:46:55.515Z,13.20
2022-09-30T18:49:22.572Z,13.30
2022-09-30T18:51:49.638Z,13.20
2022-09-30T18:54:16.790Z,13.30
2022-09-30T18:56:44.380Z,13.20
2022-09-30T18:59:18.209Z,13.20
2022-09-30T19:01:48.045Z,12.90
2022-09-30T19:04:15.490Z,13.30
2022-09-30T19:06:43.528Z,13.20
2022-09-30T19:09:10.953Z,13.30
2022-09-30T19:11:39.465Z,13.30
2022-09-30T19:14:10.243Z,13.50
2022-09-30T19:16:38.940Z,13.30
2022-09-30T19:19:08.133Z,13.30
2022-09-30T19:21:36.904Z,14.50
2022-09-30T19:24:04.885Z,13.40
2022-09-30T19:26:32.944Z,13.40
2022-09-30T19:29:00.247Z,13.40
2022-09-30T19:31:27.922Z,13.40
2022-09-30T19:33:57.049Z,13.50
2022-09-30T19:36:25.545Z,13.40
2022-09-30T19:39:04.451Z,13.40
2022-09-30T19:41:35.808Z,13.40
2022-09-30T19:44:03.336Z,13.50
2022-09-30T19:46:30.571Z,13.40
2022-09-30T19:49:02.908Z,13.50
2022-09-30T19:51:33.125Z,13.60
2022-09-30T19:54:06.737Z,13.60
2022-09-30T19:56:34.781Z,13.60
2022-09-30T19:59:01.984Z,13.60
2022-09-30T20:01:29.792Z,13.60
2022-09-30T20:03:57.794Z,13.60
2022-09-30T20:06:27.561Z,13.70
2022-09-30T20:09:00.015Z,13.60
2022-09-30T20:11:28.915Z,13.70
2022-09-30T20:14:15.361Z,13.70
2022-09-30T20:16:43.608Z,13.70
2022-09-30T20:19:11.468Z,13.70
2022-09-30T20:21:38.794Z,13.80
2022-09-30T20:24:05.925Z,13.80
2022-09-30T20:26:34.339Z,13.80
2022-09-30T20:29:01.440Z,13.80
2022-09-30T20:31:28.826Z,13.80
2022-09-30T20:33:57.258Z,13.90
2022-09-30T20:36:25.178Z,13.90
2022-09-30T20:38:52.926Z,13.90
2022-09-30T20:41:20.150Z,13.90
2022-09-30T20:43:53.017Z,13.80
2022-09-30T20:46:21.326Z,13.80
2022-09-30T20:48:48.643Z,13.90
2022-09-30T20:51:17.652Z,15.40
2022-09-30T20:53:48.822Z,14.00
2022-09-30T20:56:16.253Z,15.20
2022-09-30T20:58:43.431Z,13.90
2022-09-30T21:01:13.915Z,14.00
2022-09-30T21:03:41.367Z,14.00
2022-09-30T21:06:11.147Z,14.00
2022-09-30T21:08:39.067Z,13.30
2022-09-30T21:11:07.677Z,14.00
2022-09-30T21:13:35.638Z,14.00
2022-09-30T21:16:04.030Z,14.10
2022-09-30T21:18:31.635Z,14.10
2022-09-30T21:20:59.863Z,14.10
2022-09-30T21:23:30.613Z,13.90
2022-09-30T21:26:00.533Z,14.20
2022-09-30T21:28:28.138Z,15.10
2022-09-30T21:30:56.436Z,14.20
2022-09-30T21:33:24.453Z,14.20
2022-09-30T21:36:01.397Z,14.20
2022-09-30T21:38:29.082Z,14.20
2022-09-30T21:41:00.922Z,14.30
2022-09-30T21:43:31.700Z,14.20
2022-09-30T21:46:02.286Z,14.30
2022-09-30T21:48:30.746Z,14.30
2022-09-30T21:50:58.193Z,14.40
2022-09-30T21:53:27.350Z,14.30
2022-09-30T21:55:55.136Z,14.40
2022-09-30T21:58:26.103Z,14.40
2022-09-30T22:00:58.250Z,14.40
2022-09-30T22:03:25.458Z,14.40
2022-09-30T22:05:56.479Z,14.50
2022-09-30T22:08:23.821Z,14.50
2022-09-30T22:10:53.504Z,14.50
2022-09-30T22:13:21.102Z,14.50
2022-09-30T22:15:48.552Z,14.50
2022-09-30T22:18:17.437Z,14.60
2022-09-30T22:20:44.809Z,14.60
2022-09-30T22:23:12.308Z,14.50
2022-09-30T22:25:40.391Z,14.00
2022-09-30T22:28:08.704Z,14.60
2022-09-30T22:30:43.602Z,13.80
2022-09-30T22:33:29.281Z,14.60
2022-09-30T22:36:14.775Z,14.70
2022-09-30T22:38:41.963Z,15.70
2022-09-30T22:41:09.067Z,14.70
2022-09-30T22:43:36.161Z,15.10
2022-09-30T22:46:04.351Z,14.70
2022-09-30T22:48:31.831Z,14.80
2022-09-30T22:50:59.298Z,14.70
2022-09-30T22:53:26.927Z,14.00
2022-09-30T22:55:54.512Z,14.70
2022-09-30T22:58:24.465Z,14.70
2022-09-30T23:00:55.080Z,14.70
2022-09-30T23:03:22.624Z,14.60
2022-09-30T23:05:50.214Z,14.60
2022-09-30T23:08:17.383Z,14.60
2022-09-30T23:10:50.924Z,14.60
2022-09-30T23:13:20.135Z,15.20
2022-09-30T23:15:50.435Z,14.60
2022-09-30T23:18:17.673Z,14.60
2022-09-30T23:21:01.156Z,14.60
2022-09-30T23:23:34.618Z,15.10
2022-09-30T23:26:02.811Z,14.60
2022-09-30T23:28:30.396Z,14.60
2022-09-30T23:31:16.259Z,14.60
2022-09-30T23:33:48.571Z,14.50
2022-09-30T23:36:21.024Z,14.50
2022-09-30T23:38:48.102Z,14.50
2022-09-30T23:41:15.142Z,14.60
2022-09-30T23:43:45.832Z,14.50
2022-09-30T23:46:13.004Z,14.50
2022-09-30T23:48:40.557Z,15.30
2022-09-30T23:51:07.700Z,14.50
2022-09-30T23:53:35.654Z,14.50
2022-09-30T23:56:04.546Z,14.50
2022-09-30T23:58:34.967Z,14.50
